createdAt,value
2022-12-17T00:01:53.112Z,30.50
2022-12-17T00:04:39.525Z,43.00
2022-12-17T00:07:27.367Z,36.53
2022-12-17T00:10:14.341Z,42.90
2022-12-17T00:13:01.306Z,35.57
2022-12-17T00:15:47.119Z,39.47
2022-12-17T00:18:33.014Z,38.20
2022-12-17T00:21:20.151Z,38.80
2022-12-17T00:24:07.745Z,42.70
2022-12-17T00:26:53.997Z,35.43
2022-12-17T00:29:40.223Z,43.07
2022-12-17T00:32:25.978Z,42.47
2022-12-17T00:35:11.964Z,41.17
2022-12-17T00:37:58.051Z,43.23
2022-12-17T00:40:45.200Z,36.60
2022-12-17T00:43:32.781Z,44.77
2022-12-17T00:46:18.841Z,46.53
2022-12-17T00:49:04.987Z,36.93
2022-12-17T00:51:51.343Z,54.93
2022-12-17T00:54:37.020Z,43.77
2022-12-17T00:57:24.463Z,47.83
2022-12-17T01:00:10.532Z,34.23
2022-12-17T01:03:02.404Z,42.83
2022-12-17T01:06:19.903Z,46.80
2022-12-17T01:09:06.817Z,35.33
2022-12-17T01:11:56.536Z,36.17
2022-12-17T01:14:45.100Z,39.63
2022-12-17T01:17:38.048Z,44.10
2022-12-17T01:20:24.926Z,40.53
2022-12-17T01:23:10.575Z,38.60
2022-12-17T01:25:56.497Z,43.80
2022-12-17T01:28:42.799Z,42.47
2022-12-17T01:31:34.544Z,53.50
2022-12-17T01:34:20.777Z,60.40
2022-12-17T01:37:08.771Z,52.20
2022-12-17T01:39:54.080Z,54.83
2022-12-17T01:42:39.493Z,49.27
2022-12-17T01:45:29.699Z,67.50
2022-12-17T01:48:20.277Z,57.97
2022-12-17T01:51:10.433Z,59.67
2022-12-17T01:54:00.196Z,58.73
2022-12-17T01:56:46.733Z,64.20
2022-12-17T01:59:34.313Z,57.00
2022-12-17T02:02:20.048Z,60.57
2022-12-17T02:05:07.604Z,71.23
2022-12-17T02:08:05.812Z,66.60
2022-12-17T02:10:58.510Z,69.77
2022-12-17T02:13:49.993Z,67.10
2022-12-17T02:16:40.852Z,64.50
2022-12-17T02:19:39.316Z,64.73
2022-12-17T02:22:34.889Z,59.63
2022-12-17T02:25:28.205Z,84.00
2022-12-17T02:28:15.488Z,72.37
2022-12-17T02:31:01.399Z,73.20
2022-12-17T02:33:47.165Z,84.03
2022-12-17T02:36:33.141Z,80.40
2022-12-17T02:39:18.362Z,71.70
2022-12-17T02:42:08.045Z,66.90
2022-12-17T02:44:56.552Z,75.73
2022-12-17T02:47:44.132Z,62.80
2022-12-17T02:50:30.976Z,78.70
2022-12-17T02:53:19.285Z,65.93
2022-12-17T02:56:04.729Z,68.30
2022-12-17T02:58:50.521Z,62.40
2022-12-17T03:01:37.648Z,62.53
2022-12-17T03:04:23.718Z,70.30
2022-12-17T03:07:09.452Z,68.10
2022-12-17T03:09:55.021Z,60.50
2022-12-17T03:12:40.381Z,69.87
2022-12-17T03:15:26.781Z,77.23
2022-12-17T03:18:14.441Z,70.20
2022-12-17T03:21:00.031Z,76.43
2022-12-17T03:23:45.992Z,65.57
2022-12-17T03:26:31.363Z,62.33
2022-12-17T03:29:16.807Z,72.67
2022-12-17T03:32:02.434Z,62.10
2022-12-17T03:34:49.249Z,60.57
2022-12-17T03:37:34.515Z,59.97
2022-12-17T03:40:20.074Z,58.20
2022-12-17T03:43:05.269Z,63.53
2022-12-17T03:45:51.493Z,65.50
2022-12-17T03:48:36.674Z,60.43
2022-12-17T03:51:23.525Z,79.63
2022-12-17T03:54:08.866Z,61.07
2022-12-17T03:56:54.231Z,59.43
2022-12-17T03:59:39.697Z,76.13
2022-12-17T04:02:25.595Z,64.53
2022-12-17T04:05:15.096Z,71.37
2022-12-17T04:08:04.995Z,67.67
2022-12-17T04:10:50.740Z,77.43
2022-12-17T04:13:40.808Z,70.40
2022-12-17T04:16:26.928Z,82.43
2022-12-17T04:19:12.855Z,76.57
2022-12-17T04:21:58.343Z,74.23
2022-12-17T04:24:45.231Z,76.73
2022-12-17T04:27:30.503Z,71.37
2022-12-17T04:30:15.556Z,74.07
2022-12-17T04:33:00.771Z,91.83
2022-12-17T04:35:46.250Z,64.40
2022-12-17T04:38:31.311Z,73.73
2022-12-17T04:41:18.417Z,82.27
2022-12-17T04:44:03.778Z,79.03
2022-12-17T04:46:50.568Z,60.27
2022-12-17T04:49:36.042Z,59.83
2022-12-17T04:52:21.906Z,66.57
2022-12-17T04:55:07.196Z,76.57
2022-12-17T04:57:54.193Z,63.93
2022-12-17T05:00:40.151Z,62.03
2022-12-17T05:03:27.130Z,67.00
2022-12-17T05:06:12.487Z,55.47
2022-12-17T05:08:57.950Z,55.90
2022-12-17T05:11:43.707Z,60.77
2022-12-17T05:14:30.413Z,53.93
2022-12-17T05:17:15.684Z,57.67
2022-12-17T05:20:00.822Z,63.13
2022-12-17T05:22:46.325Z,57.47
2022-12-17T05:25:32.170Z,53.25
2022-12-17T05:28:17.281Z,53.37
2022-12-17T05:31:10.222Z,48.30
2022-12-17T05:33:55.634Z,47.60
2022-12-17T05:36:41.456Z,54.50
2022-12-17T05:39:27.334Z,49.77
2022-12-17T05:42:13.191Z,50.87
2022-12-17T05:44:59.425Z,43.70
2022-12-17T05:47:46.188Z,53.57
2022-12-17T05:50:31.502Z,51.70
2022-12-17T05:53:20.596Z,44.10
2022-12-17T05:56:08.292Z,51.30
2022-12-17T05:58:53.892Z,50.53
2022-12-17T06:01:40.586Z,43.50
2022-12-17T06:04:27.883Z,40.33
2022-12-17T06:07:14.772Z,46.93
2022-12-17T06:10:00.258Z,48.30
2022-12-17T06:12:45.719Z,43.70
2022-12-17T06:15:36.333Z,37.20
2022-12-17T06:18:21.761Z,48.30
2022-12-17T06:21:11.216Z,46.80
2022-12-17T06:23:56.569Z,45.07
2022-12-17T06:26:42.400Z,47.90
2022-12-17T06:29:27.838Z,47.37
2022-12-17T06:32:30.022Z,57.50
2022-12-17T06:35:15.589Z,44.17
2022-12-17T06:38:02.498Z,44.83
2022-12-17T06:40:48.220Z,44.33
2022-12-17T06:43:33.548Z,36.63
2022-12-17T06:46:19.337Z,45.90
2022-12-17T06:49:05.179Z,44.73
2022-12-17T06:51:50.831Z,42.33
2022-12-17T06:54:38.003Z,46.67
2022-12-17T06:57:26.762Z,44.00
2022-12-17T07:00:11.914Z,42.37
2022-12-17T07:02:57.786Z,53.63
2022-12-17T07:05:43.082Z,53.30
2022-12-17T07:08:28.924Z,51.70
2022-12-17T07:11:17.877Z,70.00
2022-12-17T07:14:03.678Z,49.93
2022-12-17T07:16:52.022Z,45.53
2022-12-17T07:19:37.436Z,57.10
2022-12-17T07:22:22.455Z,49.30
2022-12-17T07:25:07.693Z,42.53
2022-12-17T07:27:54.530Z,70.33
2022-12-17T07:30:40.659Z,40.93
2022-12-17T07:33:28.520Z,54.50
2022-12-17T07:36:14.840Z,48.20
2022-12-17T07:39:15.328Z,44.17
2022-12-17T07:42:01.098Z,49.10
2022-12-17T07:44:47.801Z,45.97
2022-12-17T07:47:33.034Z,46.00
2022-12-17T07:50:18.616Z,43.30
2022-12-17T08:09:51.020Z,40.87
2022-12-17T08:12:36.135Z,48.70
2022-12-17T08:15:21.738Z,46.33
2022-12-17T08:18:07.143Z,49.57
2022-12-17T08:20:52.563Z,46.50
2022-12-17T08:23:38.490Z,47.87
2022-12-17T08:26:26.344Z,49.90
2022-12-17T08:29:11.584Z,54.63
2022-12-17T08:31:56.946Z,58.67
2022-12-17T08:34:42.449Z,45.77
2022-12-17T08:37:27.728Z,43.83
2022-12-17T08:40:13.235Z,56.23
2022-12-17T08:43:00.181Z,54.40
2022-12-17T08:45:45.487Z,48.87
2022-12-17T08:48:30.653Z,55.23
2022-12-17T08:51:15.656Z,47.93
2022-12-17T08:54:00.932Z,51.90
2022-12-17T08:56:48.014Z,41.50
2022-12-17T08:59:35.020Z,52.30
2022-12-17T09:02:20.455Z,56.27
2022-12-17T09:05:05.916Z,49.67
2022-12-17T09:07:51.142Z,48.63
2022-12-17T09:10:36.311Z,56.03
2022-12-17T09:13:22.069Z,47.03
2022-12-17T09:16:11.923Z,42.10
2022-12-17T09:18:57.392Z,37.83
2022-12-17T09:21:42.778Z,45.10
2022-12-17T09:24:28.951Z,42.03
2022-12-17T09:27:14.342Z,43.07
2022-12-17T09:29:59.438Z,38.47
2022-12-17T09:32:46.373Z,45.27
2022-12-17T09:35:31.811Z,44.27
2022-12-17T09:38:16.825Z,42.70
2022-12-17T09:41:06.689Z,42.53
2022-12-17T09:44:06.770Z,44.50
2022-12-17T09:47:01.794Z,56.17
2022-12-17T09:49:48.410Z,43.73
2022-12-17T09:52:40.968Z,41.80
2022-12-17T09:55:39.355Z,44.70
2022-12-17T09:58:32.836Z,48.30
2022-12-17T10:01:18.364Z,45.07
2022-12-17T10:04:05.599Z,45.17
2022-12-17T10:06:53.997Z,52.90
2022-12-17T10:09:39.639Z,48.50
2022-12-17T10:12:32.239Z,67.17
2022-12-17T10:15:17.948Z,43.77
2022-12-17T10:18:03.168Z,42.03
2022-12-17T10:20:54.475Z,46.03
2022-12-17T10:23:45.090Z,57.43
2022-12-17T10:26:35.597Z,47.37
2022-12-17T10:29:24.035Z,44.87
2022-12-17T10:32:09.917Z,56.43
2022-12-17T10:35:01.734Z,47.83
2022-12-17T10:37:52.931Z,60.50
2022-12-17T10:40:44.323Z,44.97
2022-12-17T10:43:45.362Z,47.80
2022-12-17T10:46:31.030Z,48.80
2022-12-17T10:49:23.778Z,53.00
2022-12-17T10:52:09.706Z,50.10
2022-12-17T10:54:55.955Z,66.30
2022-12-17T10:57:50.030Z,47.67
2022-12-17T11:00:49.817Z,56.28
2022-12-17T11:03:50.758Z,46.83
2022-12-17T11:06:42.971Z,60.87
2022-12-17T11:09:37.069Z,52.10
2022-12-17T11:12:30.533Z,54.80
2022-12-17T11:15:21.659Z,52.03
2022-12-17T11:18:11.386Z,52.33
2022-12-17T11:21:06.177Z,49.10
2022-12-17T11:29:38.584Z,51.85
2022-12-17T11:33:02.173Z,51.27
2022-12-17T11:35:55.415Z,49.67
2022-12-17T11:41:58.315Z,51.93
2022-12-17T11:44:55.004Z,58.53
2022-12-17T11:47:48.648Z,60.17
2022-12-17T11:50:43.865Z,50.38
2022-12-17T11:53:44.598Z,54.03
2022-12-17T11:56:38.646Z,48.50
2022-12-17T11:59:34.729Z,65.85
2022-12-17T12:02:36.128Z,62.50
2022-12-17T12:05:40.788Z,63.13
2022-12-17T12:08:37.781Z,68.45
2022-12-17T12:11:37.452Z,66.27
2022-12-17T12:14:30.896Z,60.73
2022-12-17T12:17:24.948Z,62.23
2022-12-17T12:20:19.111Z,60.78
2022-12-17T12:23:15.251Z,59.45
2022-12-17T12:26:16.722Z,57.40
2022-12-17T12:29:11.536Z,60.23
2022-12-17T12:32:03.503Z,57.57
2022-12-17T12:34:51.651Z,58.43
2022-12-17T12:37:49.845Z,53.97
2022-12-17T12:40:43.245Z,52.03
2022-12-17T12:43:34.780Z,45.40
2022-12-17T12:46:25.491Z,54.47
2022-12-17T12:49:18.607Z,64.97
2022-12-17T12:52:04.517Z,43.50
2022-12-17T12:54:51.304Z,48.33
2022-12-17T12:57:50.663Z,52.47
2022-12-17T13:00:42.867Z,47.43
2022-12-17T13:03:39.933Z,52.83
2022-12-17T13:06:07.167Z,52.67
2022-12-17T13:08:34.363Z,49.33
2022-12-17T13:11:11.789Z,57.27
2022-12-17T13:13:56.188Z,56.50
2022-12-17T13:16:35.733Z,55.57
2022-12-17T13:19:17.533Z,59.80
2022-12-17T13:21:44.645Z,56.10
2022-12-17T13:24:12.755Z,52.23
2022-12-17T13:26:45.087Z,59.80
2022-12-17T13:29:22.652Z,52.20
2022-12-17T13:43:33.577Z,55.07
2022-12-17T13:49:16.509Z,55.10
2022-12-17T13:57:22.294Z,61.60
2022-12-17T14:58:21.359Z,72.07
2022-12-17T15:00:52.707Z,61.93
2022-12-17T15:03:25.649Z,62.40
2022-12-17T15:05:56.449Z,58.13
2022-12-17T15:08:23.896Z,83.10
2022-12-17T15:13:51.550Z,50.77
2022-12-17T15:16:28.096Z,63.67
2022-12-17T15:18:55.223Z,60.08
2022-12-17T15:21:23.793Z,62.50
2022-12-17T15:23:50.712Z,54.43
2022-12-17T15:26:17.706Z,62.00
2022-12-17T15:28:44.646Z,58.87
2022-12-17T15:31:14.838Z,75.23
2022-12-17T15:33:42.155Z,62.53
2022-12-17T15:36:10.318Z,61.83
2022-12-17T15:38:37.705Z,79.37
2022-12-17T15:41:28.196Z,58.57
2022-12-17T15:43:55.457Z,61.10
2022-12-17T15:46:24.110Z,59.03
2022-12-17T15:48:51.152Z,68.57
2022-12-17T15:51:19.991Z,63.73
2022-12-17T15:53:47.780Z,65.03
2022-12-17T15:56:19.869Z,75.47
2022-12-17T15:58:46.768Z,77.10
2022-12-17T16:01:13.756Z,60.47
2022-12-17T16:03:42.168Z,63.90
2022-12-17T16:06:09.003Z,57.57
2022-12-17T16:08:37.959Z,72.53
2022-12-17T16:11:20.003Z,78.87
2022-12-17T16:13:47.177Z,76.20
2022-12-17T16:16:14.188Z,64.43
2022-12-17T16:18:43.404Z,77.10
2022-12-17T16:21:10.320Z,69.90
2022-12-17T16:23:37.498Z,71.40
2022-12-17T16:26:07.356Z,63.40
2022-12-17T16:28:36.408Z,81.33
2022-12-17T16:31:06.629Z,92.20
2022-12-17T16:33:35.991Z,104.13
2022-12-17T16:36:05.766Z,74.97
2022-12-17T16:38:33.467Z,75.87
2022-12-17T16:41:03.127Z,75.13
2022-12-17T16:43:33.986Z,74.67
2022-12-17T16:46:01.293Z,104.30
2022-12-17T16:53:48.146Z,85.40
2022-12-17T16:56:16.898Z,90.03
2022-12-17T16:58:43.876Z,85.17
2022-12-17T17:01:10.974Z,100.70
2022-12-17T17:03:40.561Z,82.13
2022-12-17T17:06:08.588Z,93.93
2022-12-17T17:08:36.295Z,89.10
2022-12-17T17:11:10.489Z,93.77
2022-12-17T17:13:37.926Z,84.17
2022-12-17T17:16:05.892Z,75.43
2022-12-17T17:18:33.295Z,86.70
2022-12-17T17:21:14.591Z,84.40
2022-12-17T17:23:41.604Z,90.57
2022-12-17T17:26:10.398Z,78.57
2022-12-17T17:28:38.096Z,63.83
2022-12-17T17:31:07.681Z,71.20
2022-12-17T17:33:36.601Z,69.27
2022-12-17T17:38:45.731Z,66.03
2022-12-17T17:44:03.311Z,73.10
2022-12-17T17:46:31.191Z,78.13
2022-12-17T17:48:59.769Z,94.10
2022-12-17T17:51:59.908Z,76.47
2022-12-17T17:54:15.141Z,76.17
2022-12-17T17:56:43.370Z,72.17
2022-12-17T17:59:13.053Z,75.43
2022-12-17T18:01:42.271Z,76.57
2022-12-17T18:04:12.214Z,76.27
2022-12-17T18:33:41.900Z,76.33
2022-12-17T19:21:38.056Z,69.47
2022-12-17T19:24:08.324Z,75.87
2022-12-17T19:26:35.462Z,96.90
2022-12-17T19:29:02.551Z,86.30
2022-12-17T19:31:31.424Z,86.37
2022-12-17T19:33:59.884Z,87.43
2022-12-17T19:36:28.921Z,92.23
2022-12-17T19:38:59.701Z,88.80
2022-12-17T19:41:28.109Z,106.13
2022-12-17T19:43:57.079Z,98.70
2022-12-17T19:46:24.692Z,93.93
2022-12-17T19:48:52.528Z,107.43
2022-12-17T19:51:22.199Z,113.70
2022-12-17T19:53:50.410Z,104.63
2022-12-17T19:56:20.903Z,109.03
2022-12-17T19:58:50.961Z,101.47
2022-12-17T20:01:20.276Z,102.27
2022-12-17T20:03:48.083Z,102.47
2022-12-17T20:06:17.058Z,112.63
2022-12-17T20:08:44.178Z,105.23
2022-12-17T20:11:31.814Z,108.77
2022-12-17T20:14:03.388Z,92.37
2022-12-17T20:16:32.173Z,116.23
2022-12-17T20:19:00.460Z,95.37
2022-12-17T20:21:27.380Z,107.30
2022-12-17T20:23:54.453Z,106.60
2022-12-17T20:26:22.104Z,113.73
2022-12-17T20:28:49.122Z,109.17
2022-12-17T20:31:18.081Z,95.20
2022-12-17T20:33:45.052Z,104.30
2022-12-17T20:36:13.941Z,102.63
2022-12-17T20:38:42.106Z,89.03
2022-12-17T20:41:10.297Z,108.37
2022-12-17T20:43:37.483Z,112.10
2022-12-17T20:46:04.954Z,97.53
2022-12-17T20:48:33.478Z,95.43
2022-12-17T20:51:05.126Z,102.73
2022-12-17T20:53:32.065Z,93.97
2022-12-17T20:56:02.547Z,115.03
2022-12-17T20:58:29.555Z,112.70
2022-12-17T21:01:03.687Z,119.77
2022-12-17T21:03:32.475Z,90.33
2022-12-17T21:06:09.927Z,105.80
2022-12-17T21:08:37.878Z,114.53
2022-12-17T21:11:06.072Z,106.03
2022-12-17T21:13:33.502Z,113.63
2022-12-17T21:16:02.709Z,94.37
2022-12-17T21:18:30.984Z,96.63
2022-12-17T21:20:59.232Z,104.37
2022-12-17T21:23:28.751Z,106.10
2022-12-17T21:26:00.476Z,110.17
2022-12-17T21:28:28.035Z,107.53
2022-12-17T21:30:54.935Z,116.47
2022-12-17T21:33:22.066Z,105.63
2022-12-17T21:35:49.298Z,97.30
2022-12-17T21:38:16.490Z,117.70
2022-12-17T21:40:44.697Z,102.93
2022-12-17T21:43:11.601Z,92.53
2022-12-17T21:45:41.886Z,80.70
2022-12-17T21:48:13.011Z,87.07
2022-12-17T21:50:43.672Z,93.65
2022-12-17T21:53:12.047Z,104.30
2022-12-17T21:55:38.880Z,103.30
2022-12-17T21:58:07.966Z,82.07
2022-12-17T22:00:35.349Z,107.03
2022-12-17T22:03:02.809Z,110.80
2022-12-17T22:05:29.835Z,88.83
2022-12-17T22:07:56.661Z,94.67
2022-12-17T22:10:38.607Z,82.30
2022-12-17T22:13:30.572Z,109.80
2022-12-17T22:18:31.207Z,90.28
2022-12-17T22:20:58.681Z,97.60
2022-12-17T22:23:25.865Z,82.77
2022-12-17T22:25:53.545Z,82.30
2022-12-17T22:28:21.872Z,81.50
2022-12-17T22:31:09.173Z,97.20
2022-12-17T22:34:08.908Z,85.97
2022-12-17T22:38:38.558Z,94.83
2022-12-17T22:44:34.853Z,81.70
2022-12-17T22:44:41.150Z,84.43
2022-12-17T22:45:10.812Z,73.50
2022-12-17T22:47:38.122Z,86.03
2022-12-17T22:50:05.923Z,72.47
2022-12-17T22:52:33.322Z,68.60
2022-12-17T22:55:00.418Z,82.80
2022-12-17T22:57:33.396Z,68.77
2022-12-17T23:00:12.876Z,87.37
2022-12-17T23:02:39.834Z,63.27
2022-12-17T23:05:07.141Z,72.60
2022-12-17T23:07:34.044Z,72.47
2022-12-17T23:10:00.991Z,70.13
2022-12-17T23:12:46.116Z,72.03
2022-12-17T23:15:14.328Z,74.23
2022-12-17T23:17:41.253Z,86.73
2022-12-17T23:20:09.015Z,72.37
2022-12-17T23:22:35.872Z,68.27
2022-12-17T23:25:03.362Z,78.50
2022-12-17T23:27:31.402Z,72.23
2022-12-17T23:29:58.916Z,67.20
2022-12-17T23:32:27.571Z,68.40
2022-12-17T23:34:54.499Z,64.30
2022-12-17T23:37:21.445Z,71.63
2022-12-17T23:39:48.324Z,66.43
2022-12-17T23:42:15.277Z,65.30
2022-12-17T23:44:42.213Z,60.63
2022-12-17T23:47:09.120Z,72.00
2022-12-17T23:49:37.484Z,58.13
2022-12-17T23:52:04.711Z,73.53
2022-12-17T23:54:32.029Z,66.37
2022-12-17T23:56:58.923Z,69.37
2022-12-17T23:59:26.097Z,68.23
